Hyattstown, Maryland
Current Conditions -  °F | °C
As of 4:15 AM on Monday 24 Nov 2014 (Local Time) from KGAI Reporting Station
Overcast Overcast  
Wind Chill: 63°   Ceiling: 800
Heat Index: 63°   Visibility: 10mi
Dew Point: 59°   Wind: 10mph
Humidity: 88%   Direction: 170°S
Pressure: 29.68"   Gusts: 17mph
Location:  39.2617°N, 77.2734°W
Report Text: KGAI 240915Z 17009G15KT 10SM BKN008 OVC016 17/15 A2968 RMK AO1
Loading
Personal Weather Stations






























Interactive Weather Map New forecast layout! Learn more

10-Day Weather Forecast

Advertisements
Track Severe Weather on mobile